createdAt,value
2022-11-23T00:00:23.747Z,97091.28
2022-11-23T00:01:29.384Z,97088.91
2022-11-23T00:02:30.823Z,97095.56
2022-11-23T00:03:32.247Z,97082.53
2022-11-23T00:04:33.673Z,97093.63
2022-11-23T00:05:35.037Z,97103.34
2022-11-23T00:06:36.794Z,97099.19
2022-11-23T00:07:38.172Z,97096.84
2022-11-23T00:08:39.563Z,97101.81
2022-11-23T00:09:40.913Z,97096.06
2022-11-23T00:10:42.353Z,97097.91
2022-11-23T00:11:43.692Z,97105.31
2022-11-23T00:12:45.123Z,97104.81
2022-11-23T00:13:46.813Z,97098.03
2022-11-23T00:14:48.170Z,97098.34
2022-11-23T00:15:49.560Z,97102.31
2022-11-23T00:16:50.897Z,97092.91
2022-11-23T00:17:52.236Z,97098.16
2022-11-23T00:18:54.746Z,97099.41
2022-11-23T00:19:56.076Z,97101.53
2022-11-23T00:20:57.443Z,97106.00
2022-11-23T00:21:58.762Z,97102.31
2022-11-23T00:23:00.110Z,97101.84
2022-11-23T00:24:01.482Z,97098.16
2022-11-23T00:25:03.001Z,97100.00
2022-11-23T00:26:04.978Z,97097.38
2022-11-23T00:27:06.319Z,97102.91
2022-11-23T00:28:07.661Z,97102.16
2022-11-23T00:29:09.072Z,97098.75
2022-11-23T00:30:10.635Z,97099.03
2022-11-23T00:31:13.879Z,97103.19
2022-11-23T00:32:15.278Z,97103.19
2022-11-23T00:33:17.221Z,97104.28
2022-11-23T00:34:18.590Z,97107.97
2022-11-23T00:35:19.961Z,97103.50
2022-11-23T00:36:22.241Z,97105.06
2022-11-23T00:37:23.625Z,97102.44
2022-11-23T00:38:25.009Z,97105.81
2022-11-23T00:39:26.402Z,97107.09
2022-11-23T00:40:27.801Z,97107.28
2022-11-23T00:41:29.132Z,97104.66
2022-11-23T00:42:35.099Z,97106.97
2022-11-23T00:43:39.147Z,97100.34
2022-11-23T00:44:41.410Z,97102.97
2022-11-23T00:45:42.856Z,97095.28
2022-11-23T00:46:44.248Z,97097.44
2022-11-23T00:47:45.644Z,97102.38
2022-11-23T00:48:48.215Z,97105.97
2022-11-23T00:49:49.563Z,97104.13
2022-11-23T00:50:52.390Z,97104.00
2022-11-23T00:51:53.808Z,97104.31
2022-11-23T00:52:55.213Z,97100.63
2022-11-23T00:53:57.773Z,97099.25
2022-11-23T00:54:59.847Z,97100.97
2022-11-23T00:56:01.587Z,97100.06
2022-11-23T00:57:02.976Z,97093.66
2022-11-23T00:58:04.696Z,97097.34
2022-11-23T00:59:06.182Z,97096.28
2022-11-23T01:00:08.015Z,97097.53
2022-11-23T01:01:11.346Z,97093.53
2022-11-23T01:02:12.783Z,97098.94
2022-11-23T01:03:14.929Z,97102.53
2022-11-23T01:04:16.313Z,97096.19
2022-11-23T01:05:17.660Z,97093.28
2022-11-23T01:06:20.298Z,97088.69
2022-11-23T01:07:21.740Z,97094.13
2022-11-23T01:08:23.088Z,97096.13
2022-11-23T01:09:26.372Z,97101.13
2022-11-23T01:10:27.760Z,97093.22
2022-11-23T01:11:30.267Z,97095.84
2022-11-23T01:12:31.625Z,97098.47
2022-11-23T01:13:33.018Z,97098.19
2022-11-23T01:14:34.421Z,97097.09
2022-11-23T01:15:39.210Z,97102.03
2022-11-23T01:16:41.521Z,97097.28
2022-11-23T01:17:44.412Z,97097.59
2022-11-23T01:18:45.984Z,97093.56
2022-11-23T01:19:47.343Z,97095.88
2022-11-23T01:20:48.681Z,97095.13
2022-11-23T01:21:50.136Z,97094.03
2022-11-23T01:22:52.306Z,97099.78
2022-11-23T01:23:54.081Z,97099.00
2022-11-23T01:24:55.445Z,97099.78
2022-11-23T01:25:57.297Z,97096.66
2022-11-23T01:26:58.733Z,97104.06
2022-11-23T01:28:01.660Z,97092.03
2022-11-23T01:29:03.145Z,97096.78
2022-11-23T01:30:04.808Z,97098.34
2022-11-23T01:31:14.733Z,97105.94
2022-11-23T01:32:19.118Z,97103.31
2022-11-23T01:33:21.007Z,97099.59
2022-11-23T01:34:22.384Z,97102.84
2022-11-23T01:35:24.817Z,97104.66
2022-11-23T01:36:28.340Z,97100.81
2022-11-23T01:37:29.768Z,97103.75
2022-11-23T01:38:31.097Z,97109.00
2022-11-23T01:39:33.446Z,97105.09
2022-11-23T01:40:43.920Z,97104.16
2022-11-23T01:41:45.551Z,97101.50
2022-11-23T01:42:57.484Z,97105.69
2022-11-23T01:43:59.148Z,97112.03
2022-11-23T01:45:19.152Z,97108.81
2022-11-23T01:46:20.558Z,97110.00
2022-11-23T01:47:22.185Z,97112.91
2022-11-23T01:48:28.676Z,97108.28
2022-11-23T01:49:33.411Z,97105.16
2022-11-23T01:50:35.060Z,97105.78
2022-11-23T01:51:39.699Z,97107.63
2022-11-23T01:52:41.090Z,97107.78
2022-11-23T01:53:43.148Z,97114.91
2022-11-23T01:54:53.074Z,97106.06
2022-11-23T01:55:57.621Z,97111.63
2022-11-23T01:57:03.109Z,97111.16
2022-11-23T01:58:06.381Z,97116.09
2022-11-23T01:59:10.872Z,97120.84
2022-11-23T02:00:12.440Z,97112.97
2022-11-23T02:01:17.875Z,97113.78
2022-11-23T02:02:19.347Z,97115.91
2022-11-23T02:03:20.926Z,97125.16
2022-11-23T02:04:23.714Z,97119.41
2022-11-23T02:05:28.453Z,97127.78
2022-11-23T02:06:30.217Z,97113.09
2022-11-23T02:07:33.721Z,97120.19
2022-11-23T02:08:36.123Z,97120.50
2022-11-23T02:09:37.731Z,97120.69
2022-11-23T02:10:39.079Z,97115.44
2022-11-23T02:11:44.674Z,97118.06
2022-11-23T02:12:48.533Z,97116.53
2022-11-23T02:13:51.124Z,97115.72
2022-11-23T02:14:52.518Z,97120.84
2022-11-23T02:15:54.860Z,97121.66
2022-11-23T02:16:59.622Z,97118.41
2022-11-23T02:18:02.944Z,97120.75
2022-11-23T02:19:06.030Z,97119.19
2022-11-23T02:20:10.769Z,97124.16
2022-11-23T02:21:12.590Z,97123.38
2022-11-23T02:22:28.526Z,97123.53
2022-11-23T02:23:52.150Z,97120.63
2022-11-23T02:24:55.023Z,97124.31
2022-11-23T02:26:03.334Z,97116.44
2022-11-23T02:27:07.151Z,97117.72
2022-11-23T02:28:08.699Z,97118.47
2022-11-23T02:29:12.492Z,97119.75
2022-11-23T02:30:13.927Z,97117.78
2022-11-23T02:31:15.321Z,97120.56
2022-11-23T02:32:19.733Z,97123.19
2022-11-23T02:33:21.240Z,97123.97
2022-11-23T02:34:23.500Z,97117.94
2022-11-23T02:35:24.903Z,97121.06
2022-11-23T02:36:35.384Z,97118.41
2022-11-23T02:37:40.020Z,97126.78
2022-11-23T02:38:42.929Z,97126.78
2022-11-23T02:39:54.346Z,97125.69
2022-11-23T02:40:55.926Z,97128.31
2022-11-23T02:41:58.173Z,97133.56
2022-11-23T02:43:00.160Z,97133.56
2022-11-23T02:44:04.562Z,97128.31
2022-11-23T02:45:11.638Z,97132.03
2022-11-23T02:46:13.013Z,97136.03
2022-11-23T02:47:14.642Z,97135.72
2022-11-23T02:48:16.204Z,97132.63
2022-11-23T02:49:17.598Z,97132.91
2022-11-23T02:50:19.015Z,97136.03
2022-11-23T02:51:20.493Z,97135.84
2022-11-23T02:52:21.959Z,97129.34
2022-11-23T02:53:23.312Z,97135.97
2022-11-23T02:54:28.332Z,97135.50
2022-11-23T02:55:29.759Z,97134.53
2022-11-23T02:56:31.112Z,97147.19
2022-11-23T02:57:32.603Z,97137.28
2022-11-23T02:58:34.092Z,97134.94
2022-11-23T02:59:35.883Z,97136.31
2022-11-23T03:00:37.708Z,97135.38
2022-11-23T03:01:39.341Z,97142.78
2022-11-23T03:02:40.901Z,97138.56
2022-11-23T03:03:42.335Z,97140.91
2022-11-23T03:04:43.667Z,97135.16
2022-11-23T03:05:45.011Z,97142.28
2022-11-23T03:06:46.390Z,97143.34
2022-11-23T03:07:48.214Z,97142.09
2022-11-23T03:08:49.689Z,97143.94
2022-11-23T03:09:51.594Z,97140.84
2022-11-23T03:10:54.333Z,97144.81
2022-11-23T03:11:57.609Z,97142.81
2022-11-23T03:13:00.290Z,97145.25
2022-11-23T03:14:03.978Z,97143.69
2022-11-23T03:15:11.840Z,97145.25
2022-11-23T03:16:15.386Z,97140.56
2022-11-23T03:17:16.782Z,97148.44
2022-11-23T03:18:19.580Z,97138.25
2022-11-23T03:19:21.038Z,97138.25
2022-11-23T03:20:23.315Z,97137.47
2022-11-23T03:21:25.397Z,97146.44
2022-11-23T03:22:27.049Z,97137.19
2022-11-23T03:23:28.560Z,97145.06
2022-11-23T03:24:29.982Z,97134.84
2022-11-23T03:25:31.455Z,97142.72
2022-11-23T03:26:33.472Z,97132.22
2022-11-23T03:27:42.818Z,97137.19
2022-11-23T03:28:44.281Z,97136.41
2022-11-23T03:29:48.545Z,97142.44
2022-11-23T03:30:54.064Z,97137.94
2022-11-23T03:31:56.362Z,97140.56
2022-11-23T03:32:58.807Z,97135.22
2022-11-23T03:34:00.158Z,97133.09
2022-11-23T03:35:04.235Z,97136.19
2022-11-23T03:36:07.419Z,97136.19
2022-11-23T03:37:15.119Z,97135.09
2022-11-23T03:38:16.633Z,97137.03
2022-11-23T03:39:19.950Z,97134.72
2022-11-23T03:40:27.197Z,97134.41
2022-11-23T03:42:00.635Z,97137.34
2022-11-23T03:43:07.042Z,97135.16
2022-11-23T03:44:08.447Z,97140.72
2022-11-23T03:45:10.068Z,97145.50
2022-11-23T03:46:11.542Z,97142.59
2022-11-23T03:47:12.900Z,97147.84
2022-11-23T03:48:14.773Z,97140.44
2022-11-23T03:49:16.491Z,97142.78
2022-11-23T03:50:17.941Z,97140.81
2022-11-23T03:51:19.353Z,97129.53
2022-11-23T03:52:20.731Z,97135.84
2022-11-23T03:53:22.463Z,97133.50
2022-11-23T03:54:23.838Z,97138.47
2022-11-23T03:55:25.872Z,97132.44
2022-11-23T03:56:27.410Z,97128.25
2022-11-23T03:57:29.812Z,97137.69
2022-11-23T03:58:31.267Z,97130.59
2022-11-23T03:59:33.508Z,97125.94
2022-11-23T04:00:35.318Z,97129.81
2022-11-23T04:01:36.781Z,97135.38
2022-11-23T04:02:41.825Z,97131.66
2022-11-23T04:04:01.545Z,97124.09
2022-11-23T04:05:21.491Z,97120.97
2022-11-23T04:06:42.798Z,97122.81
2022-11-23T04:07:51.657Z,97120.38
2022-11-23T04:08:57.448Z,97117.44
2022-11-23T04:10:24.704Z,97128.25
2022-11-23T04:11:35.234Z,97124.84
2022-11-23T04:12:36.721Z,97120.69
2022-11-23T04:13:38.113Z,97117.16
2022-11-23T04:14:39.510Z,97113.78
2022-11-23T04:15:40.994Z,97117.94
2022-11-23T04:16:43.421Z,97119.50
2022-11-23T04:17:45.317Z,97118.72
2022-11-23T04:18:46.717Z,97119.97
2022-11-23T04:19:48.089Z,97112.38
2022-11-23T04:20:50.294Z,97116.09
2022-11-23T04:21:53.175Z,97112.97
2022-11-23T04:22:55.145Z,97116.69
2022-11-23T04:23:57.600Z,97112.19
2022-11-23T04:25:00.204Z,97109.00
2022-11-23T04:26:01.759Z,97115.19
2022-11-23T04:27:04.101Z,97112.88
2022-11-23T04:28:05.490Z,97118.59
2022-11-23T04:29:07.140Z,97119.38
2022-11-23T04:30:10.502Z,97116.28
2022-11-23T04:31:12.048Z,97115.50
2022-11-23T04:32:33.319Z,97114.44
2022-11-23T04:33:35.082Z,97111.63
2022-11-23T04:34:38.687Z,97115.31
2022-11-23T04:35:41.537Z,97115.31
2022-11-23T04:36:43.184Z,97115.31
2022-11-23T04:37:45.216Z,97112.97
2022-11-23T04:38:47.552Z,97115.91
2022-11-23T04:39:51.820Z,97110.34
2022-11-23T04:40:55.339Z,97111.16
2022-11-23T04:41:56.758Z,97110.84
2022-11-23T04:43:01.588Z,97106.81
2022-11-23T04:44:05.452Z,97113.16
2022-11-23T04:45:07.941Z,97115.50
2022-11-23T04:46:11.819Z,97114.69
2022-11-23T04:47:15.268Z,97111.50
2022-11-23T04:48:18.340Z,97109.63
2022-11-23T04:49:20.313Z,97119.38
2022-11-23T04:50:21.817Z,97118.91
2022-11-23T04:51:26.440Z,97112.88
2022-11-23T04:52:28.923Z,97116.75
2022-11-23T04:53:31.122Z,97119.06
2022-11-23T04:54:33.049Z,97113.53
2022-11-23T04:55:36.796Z,97118.00
2022-11-23T04:56:38.805Z,97113.34
2022-11-23T04:57:40.149Z,97112.25
2022-11-23T04:58:41.608Z,97107.97
2022-11-23T04:59:42.998Z,97111.56
2022-11-23T05:00:44.427Z,97104.88
2022-11-23T05:01:47.387Z,97109.75
2022-11-23T05:03:21.059Z,97106.19
2022-11-23T05:04:23.604Z,97099.81
2022-11-23T05:05:25.275Z,97109.53
2022-11-23T05:06:26.761Z,97105.34
2022-11-23T05:07:29.173Z,97111.19
2022-11-23T05:08:34.576Z,97117.81
2022-11-23T05:09:53.820Z,97116.06
2022-11-23T05:10:56.519Z,97115.09
2022-11-23T05:11:58.656Z,97117.56
2022-11-23T05:13:00.608Z,97114.75
2022-11-23T05:14:03.699Z,97116.41
2022-11-23T05:15:06.062Z,97114.84
2022-11-23T05:16:10.967Z,97117.28
2022-11-23T05:17:13.782Z,97121.94
2022-11-23T05:18:16.298Z,97116.22
2022-11-23T05:19:18.391Z,97122.38
2022-11-23T05:20:19.887Z,97118.47
2022-11-23T05:21:23.333Z,97106.72
2022-11-23T05:22:24.881Z,97109.16
2022-11-23T05:23:27.550Z,97113.34
2022-11-23T05:24:29.430Z,97104.19
2022-11-23T05:25:40.844Z,97105.56
2022-11-23T05:26:44.769Z,97105.25
2022-11-23T05:27:46.164Z,97105.25
2022-11-23T05:28:48.213Z,97110.25
2022-11-23T05:29:50.449Z,97104.50
2022-11-23T05:30:52.583Z,97108.19
2022-11-23T05:31:54.606Z,97104.03
2022-11-23T05:33:02.678Z,97107.41
2022-11-23T05:34:05.092Z,97107.41
2022-11-23T05:35:13.713Z,97108.78
2022-11-23T05:36:15.170Z,97107.69
2022-11-23T05:37:17.113Z,97108.19
2022-11-23T05:38:33.469Z,97108.97
2022-11-23T05:39:36.977Z,97111.13
2022-11-23T05:40:38.329Z,97104.31
2022-11-23T05:41:39.960Z,97114.31
2022-11-23T05:42:56.042Z,97110.16
2022-11-23T05:43:57.579Z,97110.16
2022-11-23T05:45:03.249Z,97114.03
2022-11-23T05:46:13.846Z,97106.66
2022-11-23T05:47:16.650Z,97112.38
2022-11-23T05:48:18.247Z,97109.75
2022-11-23T05:49:32.271Z,97111.28
2022-11-23T05:50:34.056Z,97102.53
2022-11-23T05:51:54.078Z,97107.19
2022-11-23T05:52:56.675Z,97107.50
2022-11-23T05:53:58.296Z,97105.94
2022-11-23T05:55:09.182Z,97111.38
2022-11-23T05:56:11.996Z,97112.66
2022-11-23T05:57:28.007Z,97109.25
2022-11-23T05:58:30.714Z,97110.50
2022-11-23T05:59:37.194Z,97107.75
2022-11-23T06:00:39.056Z,97108.84
2022-11-23T06:01:42.440Z,97107.28
2022-11-23T06:02:47.745Z,97100.47
2022-11-23T06:03:52.336Z,97104.66
2022-11-23T06:04:53.705Z,97107.56
2022-11-23T06:06:00.960Z,97103.59
2022-11-23T06:07:09.210Z,97096.47
2022-11-23T06:08:25.743Z,97105.13
2022-11-23T06:09:27.683Z,97108.22
2022-11-23T06:10:32.164Z,97099.19
2022-11-23T06:11:33.590Z,97103.34
2022-11-23T06:12:42.656Z,97098.09
2022-11-23T06:13:48.412Z,97097.63
2022-11-23T06:14:50.896Z,97096.84
2022-11-23T06:15:55.772Z,97099.66
2022-11-23T06:17:03.769Z,97094.41
2022-11-23T06:18:16.309Z,97094.41
2022-11-23T06:19:22.532Z,97093.63
2022-11-23T06:20:24.021Z,97093.31
2022-11-23T06:21:35.555Z,97099.84
2022-11-23T06:22:37.186Z,97099.06
2022-11-23T06:23:40.478Z,97096.25
2022-11-23T06:24:42.412Z,97103.56
2022-11-23T06:26:15.974Z,97099.84
2022-11-23T06:27:18.300Z,97107.41
2022-11-23T06:28:20.898Z,97092.44
2022-11-23T06:29:24.023Z,97096.91
2022-11-23T06:30:27.215Z,97104.78
2022-11-23T06:31:31.626Z,97111.88
2022-11-23T06:32:33.522Z,97107.91
2022-11-23T06:33:35.527Z,97110.53
2022-11-23T06:34:37.214Z,97115.78
2022-11-23T06:35:38.710Z,97103.13
2022-11-23T06:36:40.149Z,97098.34
2022-11-23T06:37:41.779Z,97109.34
2022-11-23T06:38:43.202Z,97109.66
2022-11-23T06:39:49.059Z,97106.72
2022-11-23T06:40:50.563Z,97106.72
2022-11-23T06:41:53.199Z,97104.88
2022-11-23T06:42:58.283Z,97107.19
2022-11-23T06:44:06.665Z,97107.19
2022-11-23T06:45:15.038Z,97105.63
2022-11-23T06:46:17.800Z,97116.91
2022-11-23T06:47:25.732Z,97118.47
2022-11-23T06:48:27.877Z,97122.16
2022-11-23T06:49:31.951Z,97118.00
2022-11-23T06:50:50.044Z,97119.84
2022-11-23T06:51:53.204Z,97123.25
2022-11-23T06:52:55.596Z,97124.50
2022-11-23T06:54:03.311Z,97125.28
2022-11-23T06:55:04.851Z,97126.53
2022-11-23T06:56:06.512Z,97125.75
2022-11-23T06:57:08.333Z,97126.53
2022-11-23T06:58:09.944Z,97120.50
2022-11-23T06:59:11.404Z,97116.78
2022-11-23T07:00:13.084Z,97116.53
2022-11-23T07:01:14.469Z,97115.44
2022-11-23T07:02:26.471Z,97117.16
2022-11-23T07:03:30.730Z,97121.34
2022-11-23T07:04:40.158Z,97122.13
2022-11-23T07:05:47.650Z,97116.88
2022-11-23T07:06:49.054Z,97122.59
2022-11-23T07:08:07.601Z,97121.53
2022-11-23T07:09:09.030Z,97125.72
2022-11-23T07:10:28.162Z,97131.44
2022-11-23T07:11:33.769Z,97129.28
2022-11-23T07:12:35.125Z,97125.91
2022-11-23T07:13:36.795Z,97128.97
2022-11-23T07:14:38.150Z,97127.13
2022-11-23T07:15:40.326Z,97132.56
2022-11-23T07:16:41.698Z,97124.69
2022-11-23T07:17:43.400Z,97131.19
2022-11-23T07:18:45.176Z,97135.38
2022-11-23T07:19:46.623Z,97139.56
2022-11-23T07:20:48.015Z,97136.94
2022-11-23T07:21:49.464Z,97136.63
2022-11-23T07:23:05.036Z,97138.47
2022-11-23T07:24:06.803Z,97136.50
2022-11-23T07:25:09.237Z,97139.00
2022-11-23T07:26:10.703Z,97135.28
2022-11-23T07:27:13.159Z,97137.16
2022-11-23T07:28:16.856Z,97136.38
2022-11-23T07:29:18.314Z,97142.41
2022-11-23T07:30:21.425Z,97141.81
2022-11-23T07:31:25.451Z,97137.81
2022-11-23T07:32:27.804Z,97141.69
2022-11-23T07:33:29.307Z,97141.69
2022-11-23T07:34:30.702Z,97130.88
2022-11-23T07:35:32.080Z,97138.47
2022-11-23T07:36:33.647Z,97137.41
2022-11-23T07:37:34.993Z,97145.75
2022-11-23T07:38:36.386Z,97143.75
2022-11-23T07:39:56.289Z,97143.75
2022-11-23T07:40:59.936Z,97145.50
2022-11-23T07:42:41.485Z,97142.88
2022-11-23T07:43:41.053Z,97147.22
2022-11-23T07:44:42.449Z,97148.31
2022-11-23T07:45:44.941Z,97154.34
2022-11-23T07:46:52.734Z,97152.19
2022-11-23T07:48:01.032Z,97151.88
2022-11-23T07:49:02.366Z,97150.03
2022-11-23T07:50:04.620Z,97154.50
2022-11-23T07:51:05.963Z,97150.97
2022-11-23T07:52:07.276Z,97146.97
2022-11-23T07:53:10.552Z,97153.78
2022-11-23T07:54:11.944Z,97149.78
2022-11-23T07:55:13.314Z,97149.19
2022-11-23T07:56:14.695Z,97154.13
2022-11-23T07:57:16.041Z,97150.72
2022-11-23T07:58:17.356Z,97156.50
2022-11-23T07:59:18.699Z,97153.84
2022-11-23T08:00:21.215Z,97153.09
2022-11-23T08:01:22.529Z,97162.53
2022-11-23T08:02:23.898Z,97158.03
2022-11-23T08:03:28.247Z,97155.13
2022-11-23T08:04:30.623Z,97156.19
2022-11-23T08:05:32.778Z,97164.88
2022-11-23T08:06:34.107Z,97160.84
2022-11-23T08:07:35.557Z,97153.00
2022-11-23T08:08:37.011Z,97153.94
2022-11-23T08:09:38.541Z,97159.50
2022-11-23T08:10:45.050Z,97162.59
2022-11-23T08:11:48.645Z,97158.13
2022-11-23T08:12:50.044Z,97161.06
2022-11-23T08:13:51.427Z,97170.97
2022-11-23T08:14:52.755Z,97161.97
2022-11-23T08:15:55.801Z,97162.47
2022-11-23T08:16:57.369Z,97157.97
2022-11-23T08:18:00.029Z,97164.47
2022-11-23T08:19:01.450Z,97163.28
2022-11-23T08:20:02.892Z,97160.66
2022-11-23T08:21:04.528Z,97158.50
2022-11-23T08:22:05.851Z,97153.25
2022-11-23T08:23:07.224Z,97152.03
2022-11-23T08:24:08.587Z,97160.41
2022-11-23T08:25:09.924Z,97159.00
2022-11-23T08:26:13.885Z,97163.34
2022-11-23T08:27:15.539Z,97161.03
2022-11-23T08:28:16.976Z,97160.72
2022-11-23T08:29:18.346Z,97158.53
2022-11-23T08:30:19.757Z,97159.03
2022-11-23T08:31:21.100Z,97161.81
2022-11-23T08:32:22.457Z,97164.78
2022-11-23T08:33:23.865Z,97161.38
2022-11-23T08:34:25.403Z,97155.31
2022-11-23T08:35:26.777Z,97159.19
2022-11-23T08:36:28.126Z,97167.56
2022-11-23T08:37:29.469Z,97162.75
2022-11-23T08:38:30.798Z,97162.94
2022-11-23T08:39:32.237Z,97162.00
2022-11-23T08:40:34.180Z,97155.66
2022-11-23T08:41:37.123Z,97156.09
2022-11-23T08:42:38.542Z,97158.13
2022-11-23T08:43:39.915Z,97157.03
2022-11-23T08:44:41.284Z,97154.13
2022-11-23T08:45:42.639Z,97157.97
2022-11-23T08:46:43.964Z,97161.72
2022-11-23T08:47:45.354Z,97158.91
2022-11-23T08:48:46.806Z,97156.75
2022-11-23T08:49:48.197Z,97162.81
2022-11-23T08:50:49.633Z,97153.66
2022-11-23T08:51:50.983Z,97160.03
2022-11-23T08:52:59.316Z,97163.88
2022-11-23T08:54:00.697Z,97158.78
2022-11-23T08:55:02.118Z,97160.91
2022-11-23T08:56:04.550Z,97157.06
2022-11-23T08:57:05.955Z,97163.88
2022-11-23T08:58:12.971Z,97168.84
2022-11-23T08:59:14.808Z,97166.03
2022-11-23T09:00:16.438Z,97163.88
2022-11-23T09:01:18.407Z,97155.22
2022-11-23T09:02:19.918Z,97163.25
2022-11-23T09:03:21.279Z,97161.38
2022-11-23T09:04:22.666Z,97159.53
2022-11-23T09:05:24.646Z,97158.47
2022-11-23T09:06:26.086Z,97164.78
2022-11-23T09:07:27.563Z,97162.63
2022-11-23T09:08:29.090Z,97159.53
2022-11-23T09:09:30.510Z,97162.47
2022-11-23T09:10:31.948Z,97159.22
2022-11-23T09:11:33.330Z,97158.91
2022-11-23T09:12:34.853Z,97162.63
2022-11-23T09:13:36.966Z,97162.97
2022-11-23T09:14:38.453Z,97168.22
2022-11-23T09:15:39.988Z,97162.47
2022-11-23T09:16:41.447Z,97167.75
2022-11-23T09:17:43.380Z,97173.78
2022-11-23T09:18:45.017Z,97171.78
2022-11-23T09:19:46.553Z,97168.38
2022-11-23T09:20:48.003Z,97170.09
2022-11-23T09:21:49.540Z,97165.59
2022-11-23T09:22:52.102Z,97172.41
2022-11-23T09:23:53.548Z,97164.81
2022-11-23T09:24:55.097Z,97169.31
2022-11-23T09:26:00.112Z,97165.25
2022-11-23T09:27:01.486Z,97177.22
2022-11-23T09:28:02.998Z,97170.09
2022-11-23T09:29:04.902Z,97169.59
2022-11-23T09:30:06.608Z,97177.22
2022-11-23T09:31:08.140Z,97173.78
2022-11-23T09:32:09.701Z,97167.75
2022-11-23T09:33:11.224Z,97165.88
2022-11-23T09:34:13.175Z,97168.06
2022-11-23T09:35:14.595Z,97161.41
2022-11-23T09:36:16.061Z,97169.16
2022-11-23T09:37:17.515Z,97165.59
2022-11-23T09:38:19.040Z,97164.19
2022-11-23T09:39:20.500Z,97160.94
2022-11-23T09:40:22.656Z,97158.91
2022-11-23T09:41:30.148Z,97167.13
2022-11-23T09:42:57.676Z,97150.84
2022-11-23T09:44:11.189Z,97156.44
2022-11-23T09:45:22.620Z,97166.03
2022-11-23T09:46:42.855Z,97159.69
2022-11-23T09:47:47.010Z,97161.88
2022-11-23T09:49:04.783Z,97168.19
2022-11-23T09:50:06.327Z,97153.97
2022-11-23T09:51:07.786Z,97163.56
2022-11-23T09:52:14.541Z,97155.19
2022-11-23T09:53:21.510Z,97162.31
2022-11-23T09:54:22.843Z,97162.47
2022-11-23T09:55:29.897Z,97162.59
2022-11-23T09:56:35.656Z,97157.03
2022-11-23T09:57:40.478Z,97159.50
2022-11-23T09:58:41.890Z,97148.97
2022-11-23T09:59:50.616Z,97155.78
2022-11-23T10:00:59.837Z,97155.63
2022-11-23T10:02:01.655Z,97161.50
2022-11-23T10:03:03.649Z,97148.81
2022-11-23T10:04:05.435Z,97150.78
2022-11-23T10:05:07.251Z,97146.63
2022-11-23T10:06:22.313Z,97147.25
2022-11-23T10:07:37.400Z,97142.88
2022-11-23T10:08:48.064Z,97148.47
2022-11-23T10:10:08.127Z,97140.88
2022-11-23T10:11:12.561Z,97139.00
2022-11-23T10:12:16.730Z,97137.47
2022-11-23T10:13:21.138Z,97142.41
2022-11-23T10:14:22.613Z,97141.31
2022-11-23T10:15:31.867Z,97140.69
2022-11-23T10:16:56.427Z,97135.72
2022-11-23T10:17:57.832Z,97142.56
2022-11-23T10:19:09.120Z,97130.44
2022-11-23T10:20:16.493Z,97134.16
2022-11-23T10:21:28.080Z,97131.53
2022-11-23T10:22:42.731Z,97134.63
2022-11-23T10:23:44.244Z,97134.13
2022-11-23T10:24:46.912Z,97130.09
2022-11-23T10:25:52.057Z,97131.63
2022-11-23T10:26:53.607Z,97119.22
2022-11-23T10:27:58.611Z,97132.88
2022-11-23T10:29:10.809Z,97134.41
2022-11-23T10:30:13.595Z,97130.66
2022-11-23T10:31:19.423Z,97125.03
2022-11-23T10:32:37.144Z,97129.09
2022-11-23T10:33:46.435Z,97130.97
2022-11-23T10:35:00.195Z,97133.91
2022-11-23T10:36:01.647Z,97131.28
2022-11-23T10:37:03.180Z,97138.41
2022-11-23T10:38:18.835Z,97131.59
2022-11-23T10:39:25.425Z,97136.88
2022-11-23T10:40:29.086Z,97130.97
2022-11-23T10:41:30.874Z,97134.84
2022-11-23T10:42:36.297Z,97133.28
2022-11-23T10:43:40.728Z,97132.53
2022-11-23T10:44:42.872Z,97134.38
2022-11-23T10:45:44.304Z,97131.56
2022-11-23T10:46:45.950Z,97133.72
2022-11-23T10:47:52.327Z,97130.81
2022-11-23T10:48:54.286Z,97133.25
2022-11-23T10:49:58.775Z,97136.66
2022-11-23T10:51:15.334Z,97132.59
2022-11-23T10:52:28.643Z,97140.22
2022-11-23T10:53:30.411Z,97129.34
2022-11-23T10:54:35.266Z,97128.56
2022-11-23T10:55:47.545Z,97124.31
2022-11-23T10:56:49.868Z,97130.22
2022-11-23T10:57:51.314Z,97131.75
2022-11-23T10:58:52.698Z,97132.53
2022-11-23T10:59:58.811Z,97124.28
2022-11-23T11:01:04.999Z,97129.38
2022-11-23T11:02:19.934Z,97127.50
2022-11-23T11:03:24.587Z,97128.09
2022-11-23T11:04:25.949Z,97127.00
2022-11-23T11:06:51.715Z,97119.53
2022-11-23T11:07:54.081Z,97117.53
2022-11-23T11:08:56.471Z,97113.22
2022-11-23T11:10:01.883Z,97115.53
2022-11-23T11:11:07.392Z,97117.06
2022-11-23T11:12:16.074Z,97111.78
2022-11-23T11:13:28.248Z,97118.25
2022-11-23T11:14:34.169Z,97115.75
2022-11-23T11:15:53.368Z,97110.13
2022-11-23T11:16:59.421Z,97116.50
2022-11-23T11:18:04.216Z,97114.63
2022-11-23T11:19:25.058Z,97109.50
2022-11-23T11:20:33.430Z,97113.47
2022-11-23T11:21:42.301Z,97105.88
2022-11-23T11:22:48.006Z,97108.47
2022-11-23T11:23:52.695Z,97105.63
2022-11-23T11:24:54.395Z,97109.03
2022-11-23T11:26:06.802Z,97101.25
2022-11-23T11:27:20.379Z,97102.03
2022-11-23T11:28:25.321Z,97102.03
2022-11-23T11:29:55.139Z,97098.28
2022-11-23T11:31:16.911Z,97099.38
2022-11-23T11:32:24.920Z,97092.22
2022-11-23T11:33:33.337Z,97099.06
2022-11-23T11:34:37.576Z,97096.22
2022-11-23T11:35:42.180Z,97086.41
2022-11-23T11:36:47.717Z,97089.38
2022-11-23T11:37:50.848Z,97088.91
2022-11-23T11:39:17.128Z,97095.00
2022-11-23T11:40:16.321Z,97089.59
2022-11-23T11:41:19.436Z,97094.09
2022-11-23T11:42:30.291Z,97087.84
2022-11-23T11:43:39.598Z,97089.81
2022-11-23T11:44:42.729Z,97091.06
2022-11-23T11:45:59.649Z,97086.13
2022-11-23T11:47:24.797Z,97083.81
2022-11-23T11:48:51.642Z,97089.13
2022-11-23T11:49:58.709Z,97080.72
2022-11-23T11:51:13.043Z,97080.41
2022-11-23T11:52:17.182Z,97076.19
2022-11-23T11:53:38.095Z,97074.78
2022-11-23T11:54:55.532Z,97072.59
2022-11-23T11:56:15.795Z,97078.53
2022-11-23T11:57:17.206Z,97073.34
2022-11-23T11:58:20.058Z,97075.16
2022-11-23T11:59:42.312Z,97070.19
2022-11-23T12:00:46.162Z,97074.25
2022-11-23T12:01:50.273Z,97063.56
2022-11-23T12:02:51.632Z,97065.56
2022-11-23T12:03:57.453Z,97069.72
2022-11-23T12:05:08.176Z,97071.16
2022-11-23T12:06:28.262Z,97069.28
2022-11-23T12:07:32.406Z,97064.34
2022-11-23T12:08:52.436Z,97068.97
2022-11-23T12:09:57.305Z,97065.22
2022-11-23T12:10:59.559Z,97057.88
2022-11-23T12:12:02.052Z,97056.22
2022-11-23T12:13:03.713Z,97064.38
2022-11-23T12:14:06.402Z,97062.50
2022-11-23T12:15:41.362Z,97056.09
2022-11-23T12:17:30.960Z,97059.63
2022-11-23T12:18:33.544Z,97056.34
2022-11-23T12:19:44.148Z,97051.59
2022-11-23T12:20:55.752Z,97051.59
2022-11-23T12:22:05.036Z,97046.31
2022-11-23T12:23:18.516Z,97050.81
2022-11-23T12:24:29.097Z,97055.91
2022-11-23T12:25:36.954Z,97045.00
2022-11-23T12:26:59.812Z,97049.41
2022-11-23T12:28:09.606Z,97048.16
2022-11-23T12:29:10.974Z,97046.19
2022-11-23T12:30:27.427Z,97048.06
2022-11-23T12:31:47.707Z,97043.88
2022-11-23T12:32:55.135Z,97045.28
2022-11-23T12:34:10.378Z,97051.59
2022-11-23T12:35:29.925Z,97050.28
2022-11-23T12:36:34.342Z,97057.75
2022-11-23T12:37:47.726Z,97050.81
2022-11-23T12:38:55.118Z,97052.25
2022-11-23T12:40:15.260Z,97048.75
2022-11-23T12:41:16.660Z,97051.50